Weather at İstanbul Atatürk Airport

Public forecast

Using degrees Celsius for public forecast. Weather courtesy of forecast.io.

Current aviation weather report (METAR) for İstanbul Atatürk Airport

Report is more than 6 hours old.

2022/11/14 15:20 (retrieved 2 years ago)

LTBA 141520Z 03012KT 9999 BKN032 15/07 Q1023 RMK RWY23 04010KT

Aviation forecast (TAF) for İstanbul Atatürk Airport

Forecast is more than 12 hours old.

2023/02/22 18:03 (retrieved 1 year ago)

TAF LTBA 221640Z 2218/2318 32005KT CAVOK BECMG 2223/2302 1800 BCFG BKN012 TEMPO 2302/2306 0400 FG VV001 BECMG 2306/2309 9999 NSW SCT012 BECMG 2309/2312 05016KT CAVOK